Northfield, Texas
Current Conditions -  °F | °C
As of 12:30 AM on Saturday 20 Dec 2014 (Local Time) from KCDS Reporting Station
Overcast Overcast  
Wind Chill: 38°   Ceiling: 1300
Heat Index: 42°   Visibility: 8mi
Dew Point: 40°   Wind: 6mph
Humidity: 92%   Direction: 170°S
Pressure: 30.19"   Gusts: NA
Location:  34.4383°N, 100.197°W
Report Text: KCDS 200630Z AUTO 17005KT 8SM OVC013 06/04 A3019 RMK AO2 T00560044
Loading
Personal Weather Stations






























Interactive Weather Map New forecast layout! Learn more

10-Day Weather Forecast

Advertisements
Track Severe Weather on mobile